FGD weather

Fderik Airport
Fderik, Tiris Zemmour Region, Mauritania

Public forecast

Using degrees Celsius for public forecast. Weather courtesy of forecast.io.

Closest aviation weather report (METAR) to Fderik Airport

Report is more than 6 hours old.

Closest report is Tazadit Airport, 14.8 nm (27.4 km) ENE. Retrieved 2019/07/01 15:00 UTC (3 months ago):

GQPZ 011500Z 06010KT 8000 NSC 43/12 Q1013

Closest aviation forecast (TAF) to Fderik Airport

Closest forecast is Dakhla Airport, 187.5 nm (347.2 km) WNW. Retrieved 2019/10/14 12:00 UTC (2 hours ago):

TAF GMMH 141100Z 1412/1518 03015KT 8000 NSC PROB40 1421/1509 TSRA FEW030CB